sensor_id;sensor_type;location;lat;lon;timestamp;pressure;altitude;pressure_sealevel;temperature;humidity
13041;BME280;6587;42.728;23.288;2023-10-31T00:01:34;95549.59;;;9.25;70.25
13041;BME280;6587;42.728;23.288;2023-10-31T00:04:02;95543.00;;;9.12;70.25
13041;BME280;6587;42.728;23.288;2023-10-31T00:06:29;95549.81;;;9.10;70.80
13041;BME280;6587;42.728;23.288;2023-10-31T00:08:56;95543.56;;;9.32;69.96
13041;BME280;6587;42.728;23.288;2023-10-31T00:11:23;95532.38;;;9.12;69.97
13041;BME280;6587;42.728;23.288;2023-10-31T00:13:50;95535.09;;;9.16;70.26
13041;BME280;6587;42.728;23.288;2023-10-31T00:16:16;95525.00;;;9.35;69.89
13041;BME280;6587;42.728;23.288;2023-10-31T00:18:43;95517.31;;;9.23;69.94
13041;BME280;6587;42.728;23.288;2023-10-31T00:21:12;95523.44;;;9.31;69.28
13041;BME280;6587;42.728;23.288;2023-10-31T00:23:43;95527.16;;;9.23;69.73
13041;BME280;6587;42.728;23.288;2023-10-31T00:26:10;95526.00;;;9.20;70.37
13041;BME280;6587;42.728;23.288;2023-10-31T00:28:40;95519.22;;;9.26;70.84
13041;BME280;6587;42.728;23.288;2023-10-31T00:31:07;95523.44;;;9.31;70.67
13041;BME280;6587;42.728;23.288;2023-10-31T00:33:36;95513.97;;;9.33;71.41
13041;BME280;6587;42.728;23.288;2023-10-31T00:36:04;95518.91;;;9.31;71.54
13041;BME280;6587;42.728;23.288;2023-10-31T00:38:32;95511.38;;;9.40;71.01
13041;BME280;6587;42.728;23.288;2023-10-31T00:40:59;95520.97;;;9.55;70.67
13041;BME280;6587;42.728;23.288;2023-10-31T00:43:26;95512.00;;;9.23;70.73
13041;BME280;6587;42.728;23.288;2023-10-31T00:45:53;95518.50;;;9.29;71.00
13041;BME280;6587;42.728;23.288;2023-10-31T00:48:20;95512.25;;;9.11;71.14
13041;BME280;6587;42.728;23.288;2023-10-31T00:50:47;95508.97;;;9.25;71.46
13041;BME280;6587;42.728;23.288;2023-10-31T00:53:14;95499.16;;;9.32;71.55
13041;BME280;6587;42.728;23.288;2023-10-31T00:55:43;95495.38;;;9.33;71.16
13041;BME280;6587;42.728;23.288;2023-10-31T00:58:10;95493.19;;;9.46;71.68
13041;BME280;6587;42.728;23.288;2023-10-31T01:03:24;95492.41;;;9.42;70.48
13041;BME280;6587;42.728;23.288;2023-10-31T01:05:51;95490.06;;;9.30;71.03
13041;BME280;6587;42.728;23.288;2023-10-31T01:08:17;95493.81;;;9.25;70.22
13041;BME280;6587;42.728;23.288;2023-10-31T01:10:46;95495.53;;;9.07;71.27
13041;BME280;6587;42.728;23.288;2023-10-31T01:13:13;95480.09;;;9.20;71.04
13041;BME280;6587;42.728;23.288;2023-10-31T01:15:39;95489.03;;;9.01;70.73
13041;BME280;6587;42.728;23.288;2023-10-31T01:18:06;95476.41;;;8.91;71.75
13041;BME280;6587;42.728;23.288;2023-10-31T01:20:34;95479.34;;;8.79;72.37
13041;BME280;6587;42.728;23.288;2023-10-31T01:23:00;95487.09;;;8.95;72.03
13041;BME280;6587;42.728;23.288;2023-10-31T01:25:27;95483.41;;;9.06;72.23
13041;BME280;6587;42.728;23.288;2023-10-31T01:27:56;95477.97;;;8.92;72.12
13041;BME280;6587;42.728;23.288;2023-10-31T01:30:23;95479.06;;;8.91;72.47
13041;BME280;6587;42.728;23.288;2023-10-31T01:32:50;95473.56;;;9.10;71.23
13041;BME280;6587;42.728;23.288;2023-10-31T01:35:17;95472.31;;;8.97;71.63
13041;BME280;6587;42.728;23.288;2023-10-31T01:37:45;95465.56;;;9.03;71.39
13041;BME280;6587;42.728;23.288;2023-10-31T01:40:12;95468.63;;;9.09;71.75
13041;BME280;6587;42.728;23.288;2023-10-31T01:42:39;95477.06;;;8.78;71.94
13041;BME280;6587;42.728;23.288;2023-10-31T01:45:08;95472.09;;;8.73;72.75
13041;BME280;6587;42.728;23.288;2023-10-31T01:47:35;95479.53;;;8.60;72.99
13041;BME280;6587;42.728;23.288;2023-10-31T01:50:03;95474.41;;;8.78;72.75
13041;BME280;6587;42.728;23.288;2023-10-31T01:52:30;95475.06;;;8.68;72.72
13041;BME280;6587;42.728;23.288;2023-10-31T01:54:58;95477.34;;;8.69;72.25
13041;BME280;6587;42.728;23.288;2023-10-31T01:57:25;95470.91;;;8.34;73.17
13041;BME280;6587;42.728;23.288;2023-10-31T01:59:52;95467.84;;;8.28;73.83
13041;BME280;6587;42.728;23.288;2023-10-31T02:02:22;95473.59;;;8.37;73.48
13041;BME280;6587;42.728;23.288;2023-10-31T02:04:50;95476.91;;;8.27;72.93
13041;BME280;6587;42.728;23.288;2023-10-31T02:07:17;95460.03;;;8.42;73.14
13041;BME280;6587;42.728;23.288;2023-10-31T02:09:45;95468.41;;;8.48;72.35
13041;BME280;6587;42.728;23.288;2023-10-31T02:12:31;95454.31;;;8.40;72.86
13041;BME280;6587;42.728;23.288;2023-10-31T02:14:57;95458.91;;;8.43;72.65
13041;BME280;6587;42.728;23.288;2023-10-31T02:17:26;95461.13;;;8.41;72.39
13041;BME280;6587;42.728;23.288;2023-10-31T02:19:53;95455.91;;;8.48;72.56
13041;BME280;6587;42.728;23.288;2023-10-31T02:22:21;95453.88;;;8.35;72.82
13041;BME280;6587;42.728;23.288;2023-10-31T02:24:48;95446.50;;;8.21;74.53
13041;BME280;6587;42.728;23.288;2023-10-31T02:27:15;95453.75;;;8.24;73.58
13041;BME280;6587;42.728;23.288;2023-10-31T02:29:42;95461.94;;;8.12;74.20
13041;BME280;6587;42.728;23.288;2023-10-31T02:32:10;95454.69;;;8.09;73.51
13041;BME280;6587;42.728;23.288;2023-10-31T02:34:37;95456.66;;;8.16;74.00
13041;BME280;6587;42.728;23.288;2023-10-31T02:37:04;95455.69;;;7.68;73.75
13041;BME280;6587;42.728;23.288;2023-10-31T02:39:33;95452.97;;;7.64;75.35
13041;BME280;6587;42.728;23.288;2023-10-31T02:42:00;95450.91;;;7.80;73.75
13041;BME280;6587;42.728;23.288;2023-10-31T02:44:27;95454.47;;;7.62;74.75
13041;BME280;6587;42.728;23.288;2023-10-31T02:46:54;95463.41;;;7.80;74.04
13041;BME280;6587;42.728;23.288;2023-10-31T02:49:21;95462.63;;;7.50;74.76
13041;BME280;6587;42.728;23.288;2023-10-31T02:51:48;95466.28;;;7.42;74.86
13041;BME280;6587;42.728;23.288;2023-10-31T02:54:15;95456.69;;;7.60;74.60
13041;BME280;6587;42.728;23.288;2023-10-31T02:56:44;95457.63;;;7.45;74.25
13041;BME280;6587;42.728;23.288;2023-10-31T02:59:10;95469.66;;;7.39;73.92
13041;BME280;6587;42.728;23.288;2023-10-31T03:01:37;95463.66;;;7.42;73.69
13041;BME280;6587;42.728;23.288;2023-10-31T03:04:05;95460.38;;;7.26;74.40
13041;BME280;6587;42.728;23.288;2023-10-31T03:06:32;95460.56;;;7.14;74.38
13041;BME280;6587;42.728;23.288;2023-10-31T03:08:58;95459.66;;;7.29;74.58
13041;BME280;6587;42.728;23.288;2023-10-31T03:11:26;95461.94;;;7.30;74.50
13041;BME280;6587;42.728;23.288;2023-10-31T03:13:54;95471.69;;;7.23;74.51
13041;BME280;6587;42.728;23.288;2023-10-31T03:16:22;95452.56;;;7.10;74.97
13041;BME280;6587;42.728;23.288;2023-10-31T03:18:49;95449.97;;;7.14;75.47
13041;BME280;6587;42.728;23.288;2023-10-31T03:21:16;95449.75;;;7.00;75.01
13041;BME280;6587;42.728;23.288;2023-10-31T03:23:46;95456.50;;;7.20;75.23
13041;BME280;6587;42.728;23.288;2023-10-31T03:26:13;95457.50;;;6.89;74.93
13041;BME280;6587;42.728;23.288;2023-10-31T03:28:40;95441.88;;;6.81;75.90
13041;BME280;6587;42.728;23.288;2023-10-31T03:31:11;95430.47;;;6.99;75.61
13041;BME280;6587;42.728;23.288;2023-10-31T03:33:38;95433.19;;;6.80;76.54
13041;BME280;6587;42.728;23.288;2023-10-31T03:36:06;95432.03;;;7.04;76.34
13041;BME280;6587;42.728;23.288;2023-10-31T03:38:33;95432.97;;;7.15;75.74
13041;BME280;6587;42.728;23.288;2023-10-31T03:41:01;95430.06;;;6.75;76.32
13041;BME280;6587;42.728;23.288;2023-10-31T03:43:28;95446.47;;;6.84;75.64
13041;BME280;6587;42.728;23.288;2023-10-31T03:45:55;95442.50;;;6.52;77.60
13041;BME280;6587;42.728;23.288;2023-10-31T03:48:23;95446.75;;;6.79;77.43
13041;BME280;6587;42.728;23.288;2023-10-31T03:50:50;95451.16;;;6.71;76.86
13041;BME280;6587;42.728;23.288;2023-10-31T03:53:17;95444.41;;;6.74;76.92
13041;BME280;6587;42.728;23.288;2023-10-31T03:55:44;95443.00;;;6.80;76.87
13041;BME280;6587;42.728;23.288;2023-10-31T03:58:11;95440.09;;;7.11;76.06
13041;BME280;6587;42.728;23.288;2023-10-31T04:00:39;95439.56;;;7.02;75.58
13041;BME280;6587;42.728;23.288;2023-10-31T04:03:06;95441.59;;;6.86;76.11
13041;BME280;6587;42.728;23.288;2023-10-31T04:05:34;95430.19;;;6.82;76.32
13041;BME280;6587;42.728;23.288;2023-10-31T04:08:01;95427.47;;;7.01;76.46
13041;BME280;6587;42.728;23.288;2023-10-31T04:10:28;95435.75;;;6.99;76.31
13041;BME280;6587;42.728;23.288;2023-10-31T04:12:55;95425.94;;;7.00;76.15
13041;BME280;6587;42.728;23.288;2023-10-31T04:15:22;95425.94;;;7.00;76.57
13041;BME280;6587;42.728;23.288;2023-10-31T04:17:49;95410.94;;;6.85;76.71
13041;BME280;6587;42.728;23.288;2023-10-31T04:20:16;95412.66;;;6.96;76.52
13041;BME280;6587;42.728;23.288;2023-10-31T04:22:44;95414.66;;;7.03;76.28
13041;BME280;6587;42.728;23.288;2023-10-31T04:25:11;95416.59;;;6.83;76.13
13041;BME280;6587;42.728;23.288;2023-10-31T04:27:38;95418.31;;;6.95;76.20
13041;BME280;6587;42.728;23.288;2023-10-31T04:30:05;95413.25;;;6.64;76.29
13041;BME280;6587;42.728;23.288;2023-10-31T04:32:32;95417.13;;;6.70;76.38
13041;BME280;6587;42.728;23.288;2023-10-31T04:34:59;95419.06;;;6.73;76.76
13041;BME280;6587;42.728;23.288;2023-10-31T04:37:26;95422.06;;;6.49;76.80
13041;BME280;6587;42.728;23.288;2023-10-31T04:39:54;95429.00;;;6.57;78.28
13041;BME280;6587;42.728;23.288;2023-10-31T04:42:21;95431.75;;;6.86;78.45
13041;BME280;6587;42.728;23.288;2023-10-31T04:44:48;95428.66;;;6.81;77.69
13041;BME280;6587;42.728;23.288;2023-10-31T04:47:15;95431.75;;;6.86;78.24
13041;BME280;6587;42.728;23.288;2023-10-31T04:49:42;95448.41;;;6.87;77.11
13041;BME280;6587;42.728;23.288;2023-10-31T04:52:09;95441.41;;;6.75;76.99
13041;BME280;6587;42.728;23.288;2023-10-31T04:54:35;95457.81;;;6.62;77.37
13041;BME280;6587;42.728;23.288;2023-10-31T04:57:04;95448.88;;;6.70;77.25
13041;BME280;6587;42.728;23.288;2023-10-31T04:59:31;95445.56;;;6.54;77.16
13041;BME280;6587;42.728;23.288;2023-10-31T05:01:58;95448.66;;;6.36;77.38
13041;BME280;6587;42.728;23.288;2023-10-31T05:04:25;95441.50;;;6.37;77.18
13041;BME280;6587;42.728;23.288;2023-10-31T05:06:51;95449.47;;;6.18;77.33
13041;BME280;6587;42.728;23.288;2023-10-31T05:09:19;95435.53;;;6.21;77.75
13041;BME280;6587;42.728;23.288;2023-10-31T05:11:46;95442.22;;;6.34;77.88
13041;BME280;6587;42.728;23.288;2023-10-31T05:14:14;95432.97;;;6.24;77.77
13041;BME280;6587;42.728;23.288;2023-10-31T05:16:42;95434.06;;;6.23;78.50
13041;BME280;6587;42.728;23.288;2023-10-31T05:19:09;95433.28;;;6.42;78.17
13041;BME280;6587;42.728;23.288;2023-10-31T05:21:36;95437.38;;;6.39;78.15
13041;BME280;6587;42.728;23.288;2023-10-31T05:24:04;95440.72;;;6.36;77.94
13041;BME280;6587;42.728;23.288;2023-10-31T05:26:31;95436.44;;;6.09;79.63
13041;BME280;6587;42.728;23.288;2023-10-31T05:28:58;95452.00;;;6.33;79.49
13041;BME280;6587;42.728;23.288;2023-10-31T05:31:26;95446.72;;;6.33;79.19
13041;BME280;6587;42.728;23.288;2023-10-31T05:33:53;95458.97;;;6.42;79.19
13041;BME280;6587;42.728;23.288;2023-10-31T05:36:20;95454.97;;;6.74;78.72
13041;BME280;6587;42.728;23.288;2023-10-31T05:38:48;95452.66;;;6.69;79.00
13041;BME280;6587;42.728;23.288;2023-10-31T05:41:15;95457.88;;;6.88;78.83
13041;BME280;6587;42.728;23.288;2023-10-31T05:43:42;95452.56;;;6.88;78.39
13041;BME280;6587;42.728;23.288;2023-10-31T05:46:09;95457.06;;;7.06;78.00
13041;BME280;6587;42.728;23.288;2023-10-31T05:48:40;95466.56;;;7.11;77.59
13041;BME280;6587;42.728;23.288;2023-10-31T05:51:11;95475.31;;;7.15;78.20
13041;BME280;6587;42.728;23.288;2023-10-31T05:53:40;95482.31;;;7.26;77.58
13041;BME280;6587;42.728;23.288;2023-10-31T05:56:08;95489.56;;;6.84;77.77
13041;BME280;6587;42.728;23.288;2023-10-31T05:58:35;95492.78;;;6.74;78.96
13041;BME280;6587;42.728;23.288;2023-10-31T06:01:02;95485.38;;;6.61;78.85
13041;BME280;6587;42.728;23.288;2023-10-31T06:03:29;95484.22;;;6.81;78.01
13041;BME280;6587;42.728;23.288;2023-10-31T06:05:57;95490.50;;;6.73;78.21
13041;BME280;6587;42.728;23.288;2023-10-31T06:08:24;95496.22;;;6.75;78.02
13041;BME280;6587;42.728;23.288;2023-10-31T06:10:53;95502.75;;;6.81;78.58
13041;BME280;6587;42.728;23.288;2023-10-31T06:13:20;95501.78;;;6.70;78.51
13041;BME280;6587;42.728;23.288;2023-10-31T06:15:47;95500.06;;;6.58;79.44
13041;BME280;6587;42.728;23.288;2023-10-31T06:18:14;95497.75;;;6.57;79.80
13041;BME280;6587;42.728;23.288;2023-10-31T06:20:41;95480.63;;;6.70;79.83
13041;BME280;6587;42.728;23.288;2023-10-31T06:23:09;95484.03;;;6.93;79.81
13041;BME280;6587;42.728;23.288;2023-10-31T06:25:36;95492.56;;;7.05;79.28
13041;BME280;6587;42.728;23.288;2023-10-31T06:28:03;95490.63;;;7.25;79.46
13041;BME280;6587;42.728;23.288;2023-10-31T06:30:30;95501.81;;;7.41;78.87
13041;BME280;6587;42.728;23.288;2023-10-31T06:32:56;95492.47;;;7.47;79.27
13041;BME280;6587;42.728;23.288;2023-10-31T06:35:23;95489.03;;;7.72;77.89
13041;BME280;6587;42.728;23.288;2023-10-31T06:37:51;95489.19;;;7.83;78.38
13041;BME280;6587;42.728;23.288;2023-10-31T06:40:19;95474.88;;;7.87;78.54
13041;BME280;6587;42.728;23.288;2023-10-31T06:42:46;95480.47;;;8.12;78.54
13041;BME280;6587;42.728;23.288;2023-10-31T06:45:13;95489.41;;;8.27;78.04
13041;BME280;6587;42.728;23.288;2023-10-31T06:47:40;95472.75;;;8.63;78.18
13041;BME280;6587;42.728;23.288;2023-10-31T06:50:08;95469.63;;;8.94;76.66
13041;BME280;6587;42.728;23.288;2023-10-31T06:52:35;95463.69;;;9.07;75.84
13041;BME280;6587;42.728;23.288;2023-10-31T06:55:03;95481.34;;;9.36;75.69
13041;BME280;6587;42.728;23.288;2023-10-31T06:57:31;95479.53;;;9.47;74.98
13041;BME280;6587;42.728;23.288;2023-10-31T06:59:58;95478.88;;;9.61;74.37
13041;BME280;6587;42.728;23.288;2023-10-31T07:02:25;95480.16;;;9.88;73.56
13041;BME280;6587;42.728;23.288;2023-10-31T07:04:52;95472.94;;;9.82;73.77
13041;BME280;6587;42.728;23.288;2023-10-31T07:07:19;95477.13;;;9.86;73.82
13041;BME280;6587;42.728;23.288;2023-10-31T07:09:45;95469.28;;;10.07;72.98
13041;BME280;6587;42.728;23.288;2023-10-31T07:12:12;95470.88;;;10.19;73.16
13041;BME280;6587;42.728;23.288;2023-10-31T07:14:40;95466.41;;;10.44;72.39
13041;BME280;6587;42.728;23.288;2023-10-31T07:17:07;95453.53;;;10.70;71.55
13041;BME280;6587;42.728;23.288;2023-10-31T07:19:34;95463.47;;;11.05;71.02
13041;BME280;6587;42.728;23.288;2023-10-31T07:22:01;95458.13;;;11.26;69.99
13041;BME280;6587;42.728;23.288;2023-10-31T07:24:28;95457.00;;;11.66;68.80
13041;BME280;6587;42.728;23.288;2023-10-31T07:26:55;95463.06;;;11.73;68.07
13041;BME280;6587;42.728;23.288;2023-10-31T07:29:22;95460.41;;;11.80;67.76
13041;BME280;6587;42.728;23.288;2023-10-31T07:31:50;95462.63;;;12.06;67.48
13041;BME280;6587;42.728;23.288;2023-10-31T07:34:17;95454.81;;;12.47;66.18
13041;BME280;6587;42.728;23.288;2023-10-31T07:36:44;95445.16;;;12.67;65.59
13041;BME280;6587;42.728;23.288;2023-10-31T07:39:10;95444.28;;;12.88;64.36
13041;BME280;6587;42.728;23.288;2023-10-31T07:41:38;95446.47;;;13.07;64.00
13041;BME280;6587;42.728;23.288;2023-10-31T07:44:06;95448.31;;;13.17;64.26
13041;BME280;6587;42.728;23.288;2023-10-31T07:46:32;95436.06;;;13.19;63.94
13041;BME280;6587;42.728;23.288;2023-10-31T07:49:01;95436.97;;;13.50;63.66
13041;BME280;6587;42.728;23.288;2023-10-31T07:51:28;95437.56;;;13.68;63.05
13041;BME280;6587;42.728;23.288;2023-10-31T07:53:55;95432.19;;;14.05;62.02
13041;BME280;6587;42.728;23.288;2023-10-31T07:56:23;95427.47;;;14.16;61.79
13041;BME280;6587;42.728;23.288;2023-10-31T07:58:50;95419.28;;;14.30;61.70
13041;BME280;6587;42.728;23.288;2023-10-31T08:01:18;95410.88;;;14.58;60.94
13041;BME280;6587;42.728;23.288;2023-10-31T08:03:45;95411.38;;;14.80;60.08
13041;BME280;6587;42.728;23.288;2023-10-31T08:06:14;95415.63;;;15.00;59.70
13041;BME280;6587;42.728;23.288;2023-10-31T08:08:41;95423.19;;;15.09;59.42
13041;BME280;6587;42.728;23.288;2023-10-31T08:11:08;95411.16;;;15.43;58.35
13041;BME280;6587;42.728;23.288;2023-10-31T08:13:36;95413.44;;;15.45;58.01
13041;BME280;6587;42.728;23.288;2023-10-31T08:16:03;95416.97;;;15.61;57.70
13041;BME280;6587;42.728;23.288;2023-10-31T08:18:31;95407.09;;;16.17;56.72
13041;BME280;6587;42.728;23.288;2023-10-31T08:20:58;95411.50;;;16.47;55.16
13041;BME280;6587;42.728;23.288;2023-10-31T08:23:28;95397.75;;;16.25;54.92
13041;BME280;6587;42.728;23.288;2023-10-31T08:25:55;95399.69;;;16.60;54.94
13041;BME280;6587;42.728;23.288;2023-10-31T08:28:22;95380.00;;;16.83;53.96
13041;BME280;6587;42.728;23.288;2023-10-31T08:30:49;95375.81;;;16.98;53.58
13041;BME280;6587;42.728;23.288;2023-10-31T08:33:15;95370.22;;;17.37;53.26
13041;BME280;6587;42.728;23.288;2023-10-31T08:35:43;95375.09;;;17.74;52.00
13041;BME280;6587;42.728;23.288;2023-10-31T08:38:09;95379.00;;;17.25;52.25
13041;BME280;6587;42.728;23.288;2023-10-31T08:40:38;95369.25;;;18.04;50.97
13041;BME280;6587;42.728;23.288;2023-10-31T08:43:04;95367.06;;;18.40;50.24
13041;BME280;6587;42.728;23.288;2023-10-31T08:45:32;95353.50;;;18.69;49.17
13041;BME280;6587;42.728;23.288;2023-10-31T08:47:59;95345.53;;;18.91;48.97
13041;BME280;6587;42.728;23.288;2023-10-31T08:50:26;95343.91;;;18.93;48.55
13041;BME280;6587;42.728;23.288;2023-10-31T08:52:53;95338.22;;;19.38;48.50
13041;BME280;6587;42.728;23.288;2023-10-31T08:55:20;95337.97;;;19.79;47.37
13041;BME280;6587;42.728;23.288;2023-10-31T08:57:48;95334.66;;;20.18;46.74
13041;BME280;6587;42.728;23.288;2023-10-31T09:00:18;95339.25;;;20.39;45.91
13041;BME280;6587;42.728;23.288;2023-10-31T09:02:44;95333.41;;;20.71;45.31
13041;BME280;6587;42.728;23.288;2023-10-31T09:05:11;95323.16;;;20.97;44.89
13041;BME280;6587;42.728;23.288;2023-10-31T09:07:38;95312.22;;;21.18;43.58
13041;BME280;6587;42.728;23.288;2023-10-31T09:10:07;95313.13;;;21.42;43.32
13041;BME280;6587;42.728;23.288;2023-10-31T09:12:34;95307.44;;;21.49;43.24
13041;BME280;6587;42.728;23.288;2023-10-31T09:15:02;95300.22;;;21.83;42.84
13041;BME280;6587;42.728;23.288;2023-10-31T09:17:29;95300.50;;;22.03;42.49
13041;BME280;6587;42.728;23.288;2023-10-31T09:19:56;95307.25;;;22.07;42.09
13041;BME280;6587;42.728;23.288;2023-10-31T09:22:23;95296.59;;;22.54;41.60
13041;BME280;6587;42.728;23.288;2023-10-31T09:24:52;95286.78;;;22.89;40.45
13041;BME280;6587;42.728;23.288;2023-10-31T09:27:19;95279.13;;;23.11;39.67
13041;BME280;6587;42.728;23.288;2023-10-31T09:29:46;95276.41;;;22.88;39.50
13041;BME280;6587;42.728;23.288;2023-10-31T09:32:15;95270.91;;;22.97;39.31
13041;BME280;6587;42.728;23.288;2023-10-31T09:34:42;95273.50;;;22.91;38.98
13041;BME280;6587;42.728;23.288;2023-10-31T09:37:09;95259.66;;;23.13;38.89
13041;BME280;6587;42.728;23.288;2023-10-31T09:39:36;95252.88;;;23.32;38.57
13041;BME280;6587;42.728;23.288;2023-10-31T09:42:04;95250.78;;;23.65;37.84
13041;BME280;6587;42.728;23.288;2023-10-31T09:44:30;95253.38;;;23.45;37.92
13041;BME280;6587;42.728;23.288;2023-10-31T09:46:57;95240.44;;;24.22;37.58
13041;BME280;6587;42.728;23.288;2023-10-31T09:49:26;95235.06;;;24.77;36.37
13041;BME280;6587;42.728;23.288;2023-10-31T09:51:54;95235.50;;;24.90;36.64
13041;BME280;6587;42.728;23.288;2023-10-31T09:54:21;95237.09;;;25.36;36.20
13041;BME280;6587;42.728;23.288;2023-10-31T09:56:49;95224.34;;;25.48;35.01
13041;BME280;6587;42.728;23.288;2023-10-31T09:59:16;95224.41;;;25.53;35.67
13041;BME280;6587;42.728;23.288;2023-10-31T10:01:42;95216.06;;;26.13;34.51
13041;BME280;6587;42.728;23.288;2023-10-31T10:04:10;95198.31;;;25.72;34.06
13041;BME280;6587;42.728;23.288;2023-10-31T10:06:49;95193.38;;;25.76;33.90
13041;BME280;6587;42.728;23.288;2023-10-31T10:09:17;95191.31;;;26.23;33.64
13041;BME280;6587;42.728;23.288;2023-10-31T10:11:43;95188.38;;;25.69;33.96
13041;BME280;6587;42.728;23.288;2023-10-31T10:14:11;95177.59;;;26.11;34.26
13041;BME280;6587;42.728;23.288;2023-10-31T10:16:38;95170.16;;;26.49;33.26
13041;BME280;6587;42.728;23.288;2023-10-31T10:19:15;95161.66;;;26.36;33.33
13041;BME280;6587;42.728;23.288;2023-10-31T10:21:50;95162.31;;;26.25;33.45
13041;BME280;6587;42.728;23.288;2023-10-31T10:24:17;95167.84;;;25.48;34.08
13041;BME280;6587;42.728;23.288;2023-10-31T10:26:44;95163.38;;;25.76;34.57
13041;BME280;6587;42.728;23.288;2023-10-31T10:29:11;95157.91;;;26.33;33.22
13041;BME280;6587;42.728;23.288;2023-10-31T10:31:38;95161.75;;;26.58;32.28
13041;BME280;6587;42.728;23.288;2023-10-31T10:34:06;95155.22;;;26.81;32.75
13041;BME280;6587;42.728;23.288;2023-10-31T10:36:33;95156.69;;;26.82;31.64
13041;BME280;6587;42.728;23.288;2023-10-31T10:39:02;95144.06;;;26.90;32.40
13041;BME280;6587;42.728;23.288;2023-10-31T10:41:33;95142.13;;;26.54;31.05
13041;BME280;6587;42.728;23.288;2023-10-31T10:44:04;95125.53;;;26.63;32.23
13041;BME280;6587;42.728;23.288;2023-10-31T10:46:33;95125.13;;;27.61;31.14
13041;BME280;6587;42.728;23.288;2023-10-31T10:49:04;95107.25;;;28.05;30.02
13041;BME280;6587;42.728;23.288;2023-10-31T10:51:53;95114.97;;;27.95;29.97
13041;BME280;6587;42.728;23.288;2023-10-31T10:54:26;95106.50;;;27.66;29.18
13041;BME280;6587;42.728;23.288;2023-10-31T10:57:04;95104.47;;;27.44;30.52
13041;BME280;6587;42.728;23.288;2023-10-31T10:59:39;95092.56;;;28.08;29.63
13041;BME280;6587;42.728;23.288;2023-10-31T11:02:07;95102.72;;;27.35;30.13
13041;BME280;6587;42.728;23.288;2023-10-31T11:04:36;95106.16;;;27.19;29.44
13041;BME280;6587;42.728;23.288;2023-10-31T11:07:05;95097.91;;;27.03;29.57
13041;BME280;6587;42.728;23.288;2023-10-31T11:09:33;95091.59;;;26.69;30.10
13041;BME280;6587;42.728;23.288;2023-10-31T11:12:01;95079.22;;;26.32;29.72
13041;BME280;6587;42.728;23.288;2023-10-31T11:14:29;95078.69;;;25.91;30.79
13041;BME280;6587;42.728;23.288;2023-10-31T11:17:01;95069.97;;;25.50;31.79
13041;BME280;6587;42.728;23.288;2023-10-31T11:19:30;95064.25;;;25.23;31.72
13041;BME280;6587;42.728;23.288;2023-10-31T11:21:58;95055.97;;;24.86;32.82
13041;BME280;6587;42.728;23.288;2023-10-31T11:24:26;95052.16;;;24.58;31.64
13041;BME280;6587;42.728;23.288;2023-10-31T11:26:59;95048.69;;;24.57;32.81
13041;BME280;6587;42.728;23.288;2023-10-31T11:29:27;95049.66;;;24.34;32.39
13041;BME280;6587;42.728;23.288;2023-10-31T11:31:54;95041.16;;;24.27;32.13
13041;BME280;6587;42.728;23.288;2023-10-31T11:34:22;95037.13;;;24.42;32.47
13041;BME280;6587;42.728;23.288;2023-10-31T11:36:50;95029.50;;;24.46;33.41
13041;BME280;6587;42.728;23.288;2023-10-31T11:39:18;95030.50;;;24.09;32.35
13041;BME280;6587;42.728;23.288;2023-10-31T11:41:48;95024.72;;;24.01;34.46
13041;BME280;6587;42.728;23.288;2023-10-31T11:44:17;95023.06;;;24.04;34.28
13041;BME280;6587;42.728;23.288;2023-10-31T11:46:44;95024.59;;;24.10;32.36
13041;BME280;6587;42.728;23.288;2023-10-31T11:49:15;95009.78;;;24.11;32.68
13041;BME280;6587;42.728;23.288;2023-10-31T11:51:45;95020.59;;;24.06;33.25
13041;BME280;6587;42.728;23.288;2023-10-31T11:54:13;95016.13;;;23.88;32.77
13041;BME280;6587;42.728;23.288;2023-10-31T11:56:40;95015.41;;;23.73;32.84
13041;BME280;6587;42.728;23.288;2023-10-31T11:59:07;95005.69;;;23.67;32.78
13041;BME280;6587;42.728;23.288;2023-10-31T12:01:44;95001.63;;;23.42;33.00
13041;BME280;6587;42.728;23.288;2023-10-31T12:04:21;95003.88;;;23.29;33.14
13041;BME280;6587;42.728;23.288;2023-10-31T12:06:57;94995.63;;;23.23;32.48
13041;BME280;6587;42.728;23.288;2023-10-31T12:09:23;94988.97;;;23.39;33.06
13041;BME280;6587;42.728;23.288;2023-10-31T12:11:50;94979.44;;;23.64;33.23
13041;BME280;6587;42.728;23.288;2023-10-31T12:14:18;94973.09;;;23.87;32.96
13041;BME280;6587;42.728;23.288;2023-10-31T12:16:47;94979.19;;;24.16;32.96
13041;BME280;6587;42.728;23.288;2023-10-31T12:19:14;94977.19;;;24.57;31.09
13041;BME280;6587;42.728;23.288;2023-10-31T12:21:42;94970.25;;;25.07;30.77
13041;BME280;6587;42.728;23.288;2023-10-31T12:24:11;94979.59;;;25.32;29.29
13041;BME280;6587;42.728;23.288;2023-10-31T12:26:38;94969.72;;;26.13;28.56
13041;BME280;6587;42.728;23.288;2023-10-31T12:29:07;94975.19;;;27.05;27.21
13041;BME280;6587;42.728;23.288;2023-10-31T12:31:34;94966.59;;;28.76;25.54
13041;BME280;6587;42.728;23.288;2023-10-31T12:34:05;94967.41;;;30.13;24.43
13041;BME280;6587;42.728;23.288;2023-10-31T12:36:33;94954.00;;;30.90;23.10
13041;BME280;6587;42.728;23.288;2023-10-31T12:39:00;94945.34;;;30.99;23.88
13041;BME280;6587;42.728;23.288;2023-10-31T12:41:28;94933.34;;;30.03;23.95
13041;BME280;6587;42.728;23.288;2023-10-31T12:43:55;94934.28;;;29.34;24.49
13041;BME280;6587;42.728;23.288;2023-10-31T12:46:27;94921.84;;;28.05;25.42
13041;BME280;6587;42.728;23.288;2023-10-31T12:48:54;94920.28;;;27.08;26.30
13041;BME280;6587;42.728;23.288;2023-10-31T12:51:23;94926.84;;;26.25;27.98
13041;BME280;6587;42.728;23.288;2023-10-31T12:53:50;94929.75;;;25.57;28.64
13041;BME280;6587;42.728;23.288;2023-10-31T12:56:39;94928.50;;;25.21;29.85
13041;BME280;6587;42.728;23.288;2023-10-31T12:59:06;94931.78;;;25.00;31.13
13041;BME280;6587;42.728;23.288;2023-10-31T13:01:35;94941.06;;;24.62;30.13
13041;BME280;6587;42.728;23.288;2023-10-31T13:04:02;94946.25;;;23.94;30.88
13041;BME280;6587;42.728;23.288;2023-10-31T13:06:32;94938.94;;;23.46;32.21
13041;BME280;6587;42.728;23.288;2023-10-31T13:08:59;94944.03;;;23.09;33.05
13041;BME280;6587;42.728;23.288;2023-10-31T13:11:29;94930.63;;;23.20;33.51